createdAt,value
2018-12-19T00:00:08.835Z,6.63
2018-12-19T00:02:36.340Z,6.80
2018-12-19T00:05:04.171Z,6.67
2018-12-19T00:07:31.692Z,7.53
2018-12-19T00:09:59.235Z,5.60
2018-12-19T00:12:26.747Z,5.90
2018-12-19T00:14:54.251Z,6.97
2018-12-19T00:17:21.783Z,6.00
2018-12-19T00:19:49.280Z,6.37
2018-12-19T00:22:16.820Z,5.70
2018-12-19T00:24:44.540Z,6.90
2018-12-19T00:27:12.054Z,5.50
2018-12-19T00:29:39.599Z,6.30
2018-12-19T00:32:07.103Z,6.77
2018-12-19T00:34:34.759Z,6.30
2018-12-19T00:37:02.271Z,7.03
2018-12-19T00:39:29.779Z,6.93
2018-12-19T00:41:57.319Z,7.40
2018-12-19T00:44:24.829Z,7.40
2018-12-19T00:46:52.601Z,7.70
2018-12-19T00:49:20.115Z,8.63
2018-12-19T00:51:47.622Z,7.67
2018-12-19T00:54:15.183Z,8.53
2018-12-19T00:56:42.704Z,8.53
2018-12-19T00:59:10.427Z,7.20
2018-12-19T01:01:37.931Z,7.63
2018-12-19T01:04:05.435Z,8.10
2018-12-19T01:06:33.683Z,6.60
2018-12-19T01:09:01.323Z,8.27
2018-12-19T01:11:28.860Z,8.10
2018-12-19T01:13:56.370Z,7.30
2018-12-19T01:16:23.882Z,8.17
2018-12-19T01:18:51.423Z,7.43
2018-12-19T01:21:18.935Z,8.47
2018-12-19T01:23:46.495Z,6.90
2018-12-19T01:26:14.008Z,7.80
2018-12-19T01:28:41.515Z,8.30
2018-12-19T01:31:09.052Z,8.97
2018-12-19T01:33:36.587Z,9.00
2018-12-19T01:36:04.235Z,7.20
2018-12-19T01:38:31.880Z,6.63
2018-12-19T01:40:59.388Z,8.10
2018-12-19T01:43:26.919Z,7.47
2018-12-19T01:45:54.427Z,8.57
2018-12-19T01:48:22.131Z,8.23
2018-12-19T01:50:49.635Z,7.43
2018-12-19T01:53:17.155Z,8.53
2018-12-19T01:55:44.887Z,8.03
2018-12-19T01:58:12.400Z,8.53
2018-12-19T02:00:40.147Z,7.70
2018-12-19T02:03:07.651Z,8.90
2018-12-19T02:05:35.159Z,8.30
2018-12-19T02:08:02.691Z,8.23
2018-12-19T02:10:30.195Z,8.87
2018-12-19T02:12:57.855Z,7.90
2018-12-19T02:15:25.359Z,9.90
2018-12-19T02:17:52.872Z,9.07
2018-12-19T02:20:20.412Z,9.17
2018-12-19T02:22:47.939Z,9.90
2018-12-19T02:25:15.730Z,8.70
2018-12-19T02:27:43.235Z,8.77
2018-12-19T02:30:10.865Z,9.67
2018-12-19T02:32:38.407Z,10.27
2018-12-19T02:35:06.015Z,8.57
2018-12-19T02:37:33.565Z,9.27
2018-12-19T02:40:01.093Z,8.47
2018-12-19T02:42:28.620Z,9.27
2018-12-19T02:44:56.160Z,8.83
2018-12-19T02:47:23.670Z,9.60
2018-12-19T02:49:51.228Z,7.50
2018-12-19T02:52:18.739Z,9.43
2018-12-19T02:54:46.250Z,8.60
2018-12-19T02:57:13.799Z,8.23
2018-12-19T02:59:41.308Z,8.50
2018-12-19T03:02:08.895Z,9.53
2018-12-19T03:04:36.411Z,7.70
2018-12-19T03:07:03.916Z,7.93
2018-12-19T03:09:31.453Z,8.10
2018-12-19T03:11:58.960Z,8.00
2018-12-19T03:14:26.611Z,8.30
2018-12-19T03:16:54.144Z,8.50
2018-12-19T03:19:21.659Z,8.20
2018-12-19T03:21:49.292Z,8.37
2018-12-19T03:24:16.799Z,7.23
2018-12-19T03:26:44.353Z,8.10
2018-12-19T03:29:12.368Z,8.93
2018-12-19T03:31:39.885Z,8.00
2018-12-19T03:34:07.440Z,8.77
2018-12-19T03:36:34.952Z,8.40
2018-12-19T03:39:02.688Z,8.30
2018-12-19T03:41:30.205Z,8.70
2018-12-19T03:43:57.760Z,8.20
2018-12-19T03:46:25.299Z,7.80
2018-12-19T03:48:57.481Z,8.33
2018-12-19T03:51:25.019Z,8.50
2018-12-19T03:53:52.523Z,8.67
2018-12-19T03:56:20.129Z,9.50
2018-12-19T03:58:47.643Z,8.80
2018-12-19T04:01:15.188Z,8.50
2018-12-19T04:03:42.701Z,8.10
2018-12-19T04:06:10.235Z,6.20
2018-12-19T04:08:37.744Z,6.30
2018-12-19T04:11:05.243Z,7.67
2018-12-19T04:13:32.807Z,7.63
2018-12-19T04:16:00.319Z,7.77
2018-12-19T04:18:27.891Z,9.60
2018-12-19T04:20:55.428Z,10.37
2018-12-19T04:23:22.936Z,9.23
2018-12-19T04:25:50.475Z,9.10
2018-12-19T04:28:18.017Z,9.77
2018-12-19T04:30:45.560Z,9.47
2018-12-19T04:33:13.086Z,9.37
2018-12-19T04:35:40.623Z,11.03
2018-12-19T04:38:08.167Z,9.93
2018-12-19T04:40:35.691Z,10.20
2018-12-19T04:43:03.568Z,8.67
2018-12-19T04:45:31.082Z,9.03
2018-12-19T04:47:58.591Z,9.43
2018-12-19T04:50:26.159Z,9.67
2018-12-19T04:52:53.668Z,8.20
2018-12-19T04:55:21.261Z,9.23
2018-12-19T04:57:49.403Z,10.13
2018-12-19T05:00:16.909Z,9.00
2018-12-19T05:02:44.554Z,10.40
2018-12-19T05:05:12.130Z,8.07
2018-12-19T05:07:39.881Z,8.13
2018-12-19T05:10:12.342Z,8.50
2018-12-19T05:12:37.140Z,8.77
2018-12-19T05:15:05.979Z,9.20
2018-12-19T05:17:33.488Z,9.27
2018-12-19T05:20:01.231Z,7.83
2018-12-19T05:22:28.743Z,8.73
2018-12-19T05:24:56.764Z,8.20
2018-12-19T05:27:24.324Z,7.83
2018-12-19T05:29:53.216Z,7.00
2018-12-19T05:32:20.946Z,7.37
2018-12-19T05:34:48.495Z,8.10
2018-12-19T05:37:16.208Z,7.27
2018-12-19T05:39:43.720Z,7.27
2018-12-19T05:42:11.273Z,7.07
2018-12-19T05:44:38.865Z,7.67
2018-12-19T05:47:06.391Z,7.77
2018-12-19T05:49:34.565Z,7.53
2018-12-19T05:52:02.089Z,7.17
2018-12-19T05:54:29.737Z,6.90
2018-12-19T05:56:57.315Z,7.37
2018-12-19T05:59:24.837Z,7.97
2018-12-19T06:01:52.390Z,7.03
2018-12-19T06:04:19.899Z,7.30
2018-12-19T06:06:47.439Z,7.30
2018-12-19T06:09:14.959Z,7.87
2018-12-19T06:11:42.491Z,7.93
2018-12-19T06:14:10.016Z,7.47
2018-12-19T06:16:37.567Z,7.43
2018-12-19T06:19:05.091Z,8.37
2018-12-19T06:21:32.607Z,8.13
2018-12-19T06:24:00.156Z,8.50
2018-12-19T06:26:27.704Z,7.40
2018-12-19T06:28:55.391Z,7.10
2018-12-19T06:31:22.911Z,8.73
2018-12-19T06:33:50.736Z,7.97
2018-12-19T06:36:18.647Z,7.47
2018-12-19T06:38:46.197Z,8.30
2018-12-19T06:41:13.764Z,7.60
2018-12-19T06:43:41.995Z,9.43
2018-12-19T06:46:09.513Z,7.10
2018-12-19T06:48:37.126Z,7.97
2018-12-19T06:51:04.663Z,8.70
2018-12-19T06:53:32.303Z,8.23
2018-12-19T06:55:59.811Z,7.77
2018-12-19T06:58:27.326Z,6.90
2018-12-19T07:00:54.871Z,7.70
2018-12-19T07:03:22.418Z,7.97
2018-12-19T07:05:49.967Z,7.30
2018-12-19T07:08:17.512Z,7.70
2018-12-19T07:10:45.528Z,8.80
2018-12-19T07:13:13.088Z,8.20
2018-12-19T07:15:40.641Z,8.03
2018-12-19T07:18:08.508Z,11.30
2018-12-19T07:20:36.491Z,9.70
2018-12-19T07:23:04.041Z,10.47
2018-12-19T07:25:31.724Z,9.20
2018-12-19T07:27:59.244Z,8.63
2018-12-19T07:30:26.796Z,10.10
2018-12-19T07:32:54.316Z,8.47
2018-12-19T07:35:21.858Z,7.43
2018-12-19T07:37:50.032Z,7.93
2018-12-19T07:40:17.542Z,7.53
2018-12-19T07:42:45.128Z,8.60
2018-12-19T07:45:12.639Z,8.90
2018-12-19T07:47:40.147Z,9.13
2018-12-19T07:50:07.711Z,8.90
2018-12-19T07:52:35.231Z,9.87
2018-12-19T07:55:02.867Z,9.30
2018-12-19T07:57:30.387Z,9.60
2018-12-19T07:59:57.907Z,10.23
2018-12-19T08:02:25.485Z,10.07
2018-12-19T08:04:53.995Z,8.53
2018-12-19T08:07:21.852Z,10.20
2018-12-19T08:09:49.393Z,10.43
2018-12-19T08:12:16.919Z,9.73
2018-12-19T08:14:44.467Z,9.80
2018-12-19T08:17:11.980Z,9.53
2018-12-19T08:19:39.539Z,11.00
2018-12-19T08:22:07.086Z,12.20
2018-12-19T08:24:34.628Z,11.03
2018-12-19T08:27:02.192Z,10.17
2018-12-19T08:29:29.716Z,11.10
2018-12-19T08:31:57.477Z,10.10
2018-12-19T08:34:24.997Z,10.20
2018-12-19T08:36:52.667Z,11.00
2018-12-19T08:39:20.465Z,10.80
2018-12-19T08:41:48.299Z,10.63
2018-12-19T08:44:15.875Z,11.33
2018-12-19T08:46:43.419Z,13.17
2018-12-19T08:49:10.935Z,12.20
2018-12-19T08:51:38.615Z,12.30
2018-12-19T08:54:06.132Z,11.70
2018-12-19T08:56:33.643Z,12.87
2018-12-19T08:59:01.320Z,12.33
2018-12-19T09:01:28.848Z,13.33
2018-12-19T09:03:56.368Z,13.80
2018-12-19T09:06:24.067Z,12.23
2018-12-19T09:08:51.667Z,13.07
2018-12-19T09:11:19.228Z,12.07
2018-12-19T09:13:46.890Z,10.90
2018-12-19T09:16:14.391Z,11.37
2018-12-19T09:18:41.895Z,10.37
2018-12-19T09:21:09.561Z,9.97
2018-12-19T09:23:37.086Z,8.47
2018-12-19T09:26:04.635Z,9.13
2018-12-19T09:28:32.347Z,11.67
2018-12-19T09:31:00.336Z,11.10
2018-12-19T09:33:27.882Z,10.50
2018-12-19T09:35:55.435Z,9.87
2018-12-19T09:38:22.998Z,9.90
2018-12-19T09:40:50.519Z,9.83
2018-12-19T09:43:18.215Z,10.60
2018-12-19T09:45:46.699Z,12.07
2018-12-19T09:48:14.223Z,12.00
2018-12-19T09:50:41.792Z,11.00
2018-12-19T09:53:09.307Z,10.10
2018-12-19T09:55:36.942Z,11.23
2018-12-19T09:58:04.607Z,10.40
2018-12-19T10:00:32.155Z,10.50
2018-12-19T10:02:59.692Z,11.80
2018-12-19T10:05:27.220Z,11.63
2018-12-19T10:07:54.763Z,13.00
2018-12-19T10:10:22.320Z,11.33
2018-12-19T10:12:50.006Z,12.57
2018-12-19T10:15:17.539Z,10.13
2018-12-19T10:17:45.063Z,11.40
2018-12-19T10:20:12.619Z,12.30
2018-12-19T10:22:40.159Z,11.63
2018-12-19T10:25:13.466Z,11.23
2018-12-19T10:27:41.131Z,13.80
2018-12-19T10:30:10.744Z,11.50
2018-12-19T10:32:39.405Z,11.67
2018-12-19T10:35:09.395Z,12.30
2018-12-19T10:37:37.183Z,11.10
2018-12-19T10:40:07.319Z,9.67
2018-12-19T10:42:34.879Z,11.20
2018-12-19T10:45:02.752Z,11.80
2018-12-19T10:47:30.268Z,10.77
2018-12-19T10:49:57.857Z,11.37
2018-12-19T10:52:25.371Z,11.00
2018-12-19T10:54:52.908Z,10.70
2018-12-19T10:57:20.452Z,11.23
2018-12-19T10:59:47.956Z,10.80
2018-12-19T11:02:15.692Z,9.50
2018-12-19T11:04:43.224Z,10.93
2018-12-19T11:07:10.747Z,11.37
2018-12-19T11:09:38.287Z,11.63
2018-12-19T11:12:05.823Z,9.90
2018-12-19T11:14:35.331Z,10.67
2018-12-19T11:17:02.972Z,11.70
2018-12-19T11:19:30.492Z,13.50
2018-12-19T11:21:58.051Z,9.90
2018-12-19T11:24:25.565Z,10.03
2018-12-19T11:26:53.416Z,11.60
2018-12-19T11:29:20.937Z,12.27
2018-12-19T11:31:48.460Z,11.77
2018-12-19T11:34:16.003Z,12.10
2018-12-19T11:36:43.522Z,12.80
2018-12-19T11:39:11.059Z,11.97
2018-12-19T11:41:39.089Z,12.20
2018-12-19T11:44:07.059Z,12.80
2018-12-19T11:46:34.604Z,13.30
2018-12-19T11:49:02.123Z,13.70
2018-12-19T11:51:29.667Z,13.80
2018-12-19T11:53:57.188Z,13.23
2018-12-19T11:56:24.752Z,14.87
2018-12-19T11:58:52.270Z,14.00
2018-12-19T12:01:19.824Z,14.30
2018-12-19T12:03:47.377Z,13.90
2018-12-19T12:06:14.895Z,14.70
2018-12-19T12:08:42.440Z,12.30
2018-12-19T12:11:09.992Z,14.77
2018-12-19T12:13:37.508Z,13.77
2018-12-19T12:16:05.057Z,15.03
2018-12-19T12:18:32.575Z,13.97
2018-12-19T12:21:00.247Z,13.87
2018-12-19T12:23:27.796Z,13.20
2018-12-19T12:25:55.315Z,14.70
2018-12-19T12:28:22.859Z,14.50
2018-12-19T12:30:50.377Z,14.90
2018-12-19T12:33:17.927Z,14.70
2018-12-19T12:35:45.551Z,13.97
2018-12-19T12:38:13.058Z,13.93
2018-12-19T12:40:40.611Z,14.87
2018-12-19T12:43:08.145Z,15.50
2018-12-19T12:45:35.855Z,16.63
2018-12-19T12:48:03.527Z,15.13
2018-12-19T12:50:31.055Z,15.30
2018-12-19T12:52:58.601Z,13.97
2018-12-19T12:55:26.124Z,14.50
2018-12-19T12:57:53.668Z,16.37
2018-12-19T13:00:21.203Z,16.70
2018-12-19T13:02:48.719Z,16.10
2018-12-19T13:05:16.379Z,15.50
2018-12-19T13:07:43.895Z,15.87
2018-12-19T13:10:11.747Z,14.03
2018-12-19T13:12:39.264Z,15.23
2018-12-19T13:15:07.319Z,14.53
2018-12-19T13:17:34.876Z,14.57
2018-12-19T13:20:02.587Z,15.17
2018-12-19T13:22:30.257Z,15.30
2018-12-19T13:24:57.771Z,15.60
2018-12-19T13:27:25.292Z,14.20
2018-12-19T13:29:52.831Z,14.93
2018-12-19T13:32:20.445Z,14.90
2018-12-19T13:34:48.260Z,14.03
2018-12-19T13:37:15.775Z,14.90
2018-12-19T13:39:43.288Z,14.67
2018-12-19T13:42:10.821Z,16.10
2018-12-19T13:44:38.331Z,15.63
2018-12-19T13:47:05.879Z,13.70
2018-12-19T13:49:33.404Z,15.87
2018-12-19T13:52:00.921Z,14.63
2018-12-19T13:54:28.468Z,14.10
2018-12-19T13:56:55.987Z,15.20
2018-12-19T13:59:23.856Z,14.43
2018-12-19T14:01:51.375Z,15.97
2018-12-19T14:04:19.215Z,15.20
2018-12-19T14:06:46.759Z,15.97
2018-12-19T14:09:14.297Z,14.70
2018-12-19T14:11:42.085Z,15.80
2018-12-19T14:14:09.620Z,13.70
2018-12-19T14:16:37.147Z,15.63
2018-12-19T14:19:04.702Z,15.20
2018-12-19T14:21:32.228Z,16.10
2018-12-19T14:23:59.796Z,14.47
2018-12-19T14:26:27.319Z,14.97
2018-12-19T14:28:54.838Z,17.93
2018-12-19T14:31:22.383Z,15.40
2018-12-19T14:33:50.043Z,15.20
2018-12-19T14:36:17.603Z,14.27
2018-12-19T14:38:45.115Z,15.93
2018-12-19T14:41:12.634Z,17.40
2018-12-19T14:43:40.177Z,15.10
2018-12-19T14:46:08.293Z,14.13
2018-12-19T14:48:35.847Z,14.80
2018-12-19T14:51:03.467Z,14.83
2018-12-19T14:53:30.975Z,14.00
2018-12-19T14:55:58.523Z,15.43
2018-12-19T14:58:26.031Z,14.50
2018-12-19T15:00:53.592Z,15.53
2018-12-19T15:03:21.110Z,15.83
2018-12-19T15:05:48.724Z,15.70
2018-12-19T15:08:16.375Z,14.63
2018-12-19T15:10:43.896Z,14.90
2018-12-19T15:13:11.448Z,14.30
2018-12-19T15:15:38.956Z,13.97
2018-12-19T15:18:06.472Z,13.87
2018-12-19T15:20:34.008Z,13.97
2018-12-19T15:23:01.751Z,13.40
2018-12-19T15:25:29.296Z,14.50
2018-12-19T15:27:56.811Z,14.23
2018-12-19T15:30:25.050Z,14.17
2018-12-19T15:32:52.871Z,13.83
2018-12-19T15:35:20.395Z,15.33
2018-12-19T15:37:47.967Z,14.03
2018-12-19T15:40:15.530Z,14.07
2018-12-19T15:42:43.240Z,14.03
2018-12-19T15:45:10.855Z,14.70
2018-12-19T15:47:38.372Z,13.90
2018-12-19T15:50:06.620Z,14.73
2018-12-19T15:52:34.153Z,13.20
2018-12-19T15:55:01.701Z,14.00
2018-12-19T15:57:29.240Z,14.20
2018-12-19T15:59:56.752Z,15.37
2018-12-19T16:02:24.293Z,16.17
2018-12-19T16:04:51.824Z,15.93
2018-12-19T16:07:19.376Z,15.90
2018-12-19T16:09:46.906Z,17.37
2018-12-19T16:12:14.419Z,16.00
2018-12-19T16:14:41.966Z,15.50
2018-12-19T16:17:09.472Z,15.70
2018-12-19T16:19:37.316Z,18.30
2018-12-19T16:22:04.956Z,20.50
2018-12-19T16:24:32.471Z,17.47
2018-12-19T16:27:00.007Z,20.03
2018-12-19T16:29:27.523Z,17.37
2018-12-19T16:31:55.103Z,17.30
2018-12-19T16:34:23.024Z,18.07
2018-12-19T16:36:50.549Z,15.87
2018-12-19T16:39:18.083Z,14.57
2018-12-19T16:41:45.592Z,14.63
2018-12-19T16:44:13.139Z,13.90
2018-12-19T16:46:40.654Z,12.93
2018-12-19T16:49:08.179Z,14.17
2018-12-19T16:51:35.727Z,15.83
2018-12-19T16:54:03.369Z,15.77
2018-12-19T16:56:31.122Z,16.97
2018-12-19T16:58:58.643Z,16.00
2018-12-19T17:01:26.163Z,14.00
2018-12-19T17:03:53.785Z,13.77
2018-12-19T17:06:21.299Z,14.07
2018-12-19T17:08:48.925Z,11.20
2018-12-19T17:11:16.439Z,12.17
2018-12-19T17:13:43.955Z,12.53
2018-12-19T17:16:11.504Z,11.90
2018-12-19T17:18:39.030Z,13.50
2018-12-19T17:21:06.579Z,12.33
2018-12-19T17:23:34.097Z,12.10
2018-12-19T17:26:01.816Z,13.80
2018-12-19T17:28:29.369Z,13.80
2018-12-19T17:30:56.896Z,13.67
2018-12-19T17:33:24.499Z,12.00
2018-12-19T17:35:52.015Z,13.63
2018-12-19T17:38:19.643Z,14.07
2018-12-19T17:40:47.208Z,14.20
2018-12-19T17:43:14.727Z,14.30
2018-12-19T17:45:42.283Z,13.90
2018-12-19T17:48:09.801Z,12.87
2018-12-19T17:50:37.964Z,13.63
2018-12-19T17:53:05.507Z,12.93
2018-12-19T17:55:33.023Z,13.20
2018-12-19T17:58:00.728Z,13.87
2018-12-19T18:00:28.341Z,13.47
2018-12-19T18:02:55.855Z,12.87
2018-12-19T18:05:23.407Z,14.33
2018-12-19T18:07:50.991Z,13.60
2018-12-19T18:10:18.612Z,13.23
2018-12-19T18:12:46.131Z,14.70
2018-12-19T18:15:13.647Z,15.73
2018-12-19T18:17:41.211Z,13.90
2018-12-19T18:20:08.851Z,14.90
2018-12-19T18:22:36.735Z,15.43
2018-12-19T18:25:04.655Z,15.07
2018-12-19T18:27:32.168Z,15.10
2018-12-19T18:29:59.722Z,14.33
2018-12-19T18:32:27.235Z,14.80
2018-12-19T18:34:54.779Z,15.47
2018-12-19T18:37:22.552Z,15.20
2018-12-19T18:39:50.067Z,15.90
2018-12-19T18:42:17.622Z,17.00
2018-12-19T18:44:45.135Z,14.63
2018-12-19T18:47:12.683Z,18.03
2018-12-19T18:49:40.223Z,14.90
2018-12-19T18:52:07.969Z,14.83
2018-12-19T18:54:35.555Z,16.27
2018-12-19T18:57:03.076Z,16.77
2018-12-19T18:59:30.625Z,15.83
2018-12-19T19:01:58.222Z,15.47
2018-12-19T19:04:25.849Z,15.10
2018-12-19T19:06:53.405Z,13.70
2018-12-19T19:09:20.997Z,13.80
2018-12-19T19:11:48.615Z,14.63
2018-12-19T19:14:16.133Z,14.07
2018-12-19T19:16:43.671Z,13.53
2018-12-19T19:19:11.313Z,13.93
2018-12-19T19:21:40.319Z,13.50
2018-12-19T19:24:08.203Z,12.53
2018-12-19T19:26:36.540Z,13.97
2018-12-19T19:29:04.364Z,14.23
2018-12-19T19:31:32.098Z,16.33
2018-12-19T19:33:59.659Z,17.60
2018-12-19T19:36:27.182Z,17.10
2018-12-19T19:38:54.728Z,17.97
2018-12-19T19:41:22.257Z,18.67
2018-12-19T19:43:50.101Z,18.13
2018-12-19T19:46:17.647Z,22.27
2018-12-19T19:48:45.184Z,22.90
2018-12-19T19:51:16.987Z,21.47
2018-12-19T19:53:42.285Z,22.80
2018-12-19T19:56:09.950Z,27.13
2018-12-19T19:58:37.997Z,25.30
2018-12-19T20:01:05.525Z,26.70
2018-12-19T20:03:33.088Z,26.10
2018-12-19T20:06:00.607Z,26.80
2018-12-19T20:08:28.170Z,24.60
2018-12-19T20:10:55.947Z,22.83
2018-12-19T20:13:23.468Z,21.27
2018-12-19T20:15:51.015Z,22.27
2018-12-19T20:18:18.541Z,19.67
2018-12-19T20:20:46.272Z,20.23
2018-12-19T20:23:13.792Z,18.57
2018-12-19T20:25:41.311Z,21.57
2018-12-19T20:28:08.887Z,21.97
2018-12-19T20:30:36.462Z,20.57
2018-12-19T20:33:04.266Z,21.53
2018-12-19T20:35:31.895Z,19.47
2018-12-19T20:37:59.419Z,19.17
2018-12-19T20:40:26.980Z,18.50
2018-12-19T20:42:54.528Z,18.83
2018-12-19T20:45:22.366Z,21.40
2018-12-19T20:47:49.903Z,21.47
2018-12-19T20:50:17.423Z,18.17
2018-12-19T20:52:44.979Z,19.90
2018-12-19T20:55:12.513Z,19.30
2018-12-19T20:57:40.182Z,21.77
2018-12-19T21:00:07.950Z,16.80
2018-12-19T21:02:35.468Z,21.50
2018-12-19T21:05:03.039Z,22.47
2018-12-19T21:07:30.592Z,21.00
2018-12-19T21:09:58.148Z,21.43
2018-12-19T21:12:25.683Z,21.07
2018-12-19T21:14:53.300Z,19.90
2018-12-19T21:17:26.460Z,20.80
2018-12-19T21:19:53.972Z,22.17
2018-12-19T21:22:21.524Z,19.67
2018-12-19T21:24:49.039Z,19.97
2018-12-19T21:27:16.544Z,18.67
2018-12-19T21:29:44.092Z,18.90
2018-12-19T21:32:11.612Z,19.90
2018-12-19T21:34:39.327Z,20.50
2018-12-19T21:37:06.862Z,21.30
2018-12-19T21:39:34.405Z,20.20
2018-12-19T21:42:02.044Z,20.63
2018-12-19T21:44:29.688Z,21.77
2018-12-19T21:46:57.489Z,20.57
2018-12-19T21:49:25.131Z,19.90
2018-12-19T21:51:52.764Z,20.10
2018-12-19T21:54:20.401Z,19.43
2018-12-19T21:56:48.013Z,22.00
2018-12-19T21:59:15.675Z,21.57
2018-12-19T22:01:43.204Z,23.20
2018-12-19T22:04:10.727Z,24.50
2018-12-19T22:06:38.399Z,19.53
2018-12-19T22:09:07.911Z,18.70
2018-12-19T22:11:35.707Z,16.90
2018-12-19T22:14:03.261Z,18.43
2018-12-19T22:16:36.615Z,20.83
2018-12-19T22:19:04.299Z,21.13
2018-12-19T22:21:31.925Z,22.07
2018-12-19T22:23:59.564Z,19.53
2018-12-19T22:26:27.158Z,20.93
2018-12-19T22:28:54.681Z,20.87
2018-12-19T22:31:22.253Z,22.53
2018-12-19T22:33:49.807Z,20.70
2018-12-19T22:36:17.762Z,24.67
2018-12-19T22:38:45.288Z,23.60
2018-12-19T22:41:12.877Z,24.93
2018-12-19T22:43:40.482Z,22.27
2018-12-19T22:46:08.151Z,22.23
2018-12-19T22:48:35.939Z,24.57
2018-12-19T22:51:03.524Z,25.80
2018-12-19T22:53:31.217Z,25.57
2018-12-19T22:55:58.843Z,24.97
2018-12-19T22:58:26.376Z,28.77
2018-12-19T23:04:06.642Z,27.40
2018-12-19T23:06:34.823Z,26.07
2018-12-19T23:09:02.362Z,27.00
2018-12-19T23:11:29.968Z,25.83
2018-12-19T23:13:57.610Z,25.13
2018-12-19T23:16:25.171Z,25.60
2018-12-19T23:18:52.839Z,24.40
2018-12-19T23:21:20.370Z,24.30
2018-12-19T23:23:47.911Z,25.30
2018-12-19T23:26:15.668Z,25.80
2018-12-19T23:28:43.243Z,24.83
2018-12-19T23:31:10.932Z,23.20
2018-12-19T23:33:38.535Z,22.20
2018-12-19T23:36:06.128Z,21.77
2018-12-19T23:38:33.736Z,22.77
2018-12-19T23:41:01.375Z,20.37
2018-12-19T23:43:29.434Z,21.17
2018-12-19T23:45:56.999Z,22.63
2018-12-19T23:48:24.522Z,24.13
2018-12-19T23:50:52.225Z,22.90
2018-12-19T23:53:19.835Z,26.23
2018-12-19T23:55:47.551Z,26.37
2018-12-19T23:58:15.099Z,27.30
